createdAt,value
2022-09-23T00:01:03.273Z,98927.38
2022-09-23T00:03:30.333Z,98925.59
2022-09-23T00:05:57.922Z,98929.16
2022-09-23T00:08:24.947Z,98922.25
2022-09-23T00:10:51.962Z,98917.06
2022-09-23T00:13:18.976Z,98926.66
2022-09-23T00:15:46.745Z,98925.00
2022-09-23T00:18:13.857Z,98924.16
2022-09-23T00:20:41.017Z,98922.50
2022-09-23T00:23:08.014Z,98922.50
2022-09-23T00:25:35.013Z,98916.44
2022-09-23T00:28:03.211Z,98921.66
2022-09-23T00:30:31.189Z,98927.81
2022-09-23T00:32:58.379Z,98920.94
2022-09-23T00:35:25.379Z,98921.78
2022-09-23T00:37:52.388Z,98923.69
2022-09-23T00:40:19.421Z,98921.06
2022-09-23T00:42:46.774Z,98908.88
2022-09-23T00:45:13.792Z,98908.88
2022-09-23T00:47:40.816Z,98902.84
2022-09-23T00:50:09.008Z,98906.38
2022-09-23T00:52:36.010Z,98898.75
2022-09-23T00:55:03.019Z,98896.91
2022-09-23T00:57:31.261Z,98899.50
2022-09-23T00:59:58.271Z,98906.50
2022-09-23T01:02:25.332Z,98891.91
2022-09-23T01:04:52.385Z,98894.50
2022-09-23T01:07:19.406Z,98898.75
2022-09-23T01:09:46.975Z,98894.50
2022-09-23T01:12:13.966Z,98891.06
2022-09-23T01:14:41.167Z,98897.31
2022-09-23T01:17:08.232Z,98891.28
2022-09-23T01:19:35.803Z,98888.69
2022-09-23T01:22:02.820Z,98890.47
2022-09-23T01:24:29.859Z,98887.84
2022-09-23T01:26:56.856Z,98884.44
2022-09-23T01:29:23.907Z,98885.38
2022-09-23T01:31:50.950Z,98893.19
2022-09-23T01:34:17.940Z,98885.38
2022-09-23T01:36:44.985Z,98881.94
2022-09-23T01:39:12.036Z,98885.47
2022-09-23T01:41:39.187Z,98887.25
2022-09-23T01:44:06.781Z,98884.63
2022-09-23T01:46:33.770Z,98883.81
2022-09-23T01:49:00.861Z,98872.44
2022-09-23T01:51:27.894Z,98881.22
2022-09-23T01:53:55.254Z,98875.19
2022-09-23T01:56:22.267Z,98872.66
2022-09-23T01:58:49.276Z,98869.22
2022-09-23T02:01:16.346Z,98870.91
2022-09-23T02:03:43.762Z,98860.59
2022-09-23T02:06:10.760Z,98856.22
2022-09-23T02:08:37.742Z,98869.22
2022-09-23T02:11:04.739Z,98871.00
2022-09-23T02:13:32.637Z,98867.56
2022-09-23T02:16:01.148Z,98867.69
2022-09-23T02:18:28.539Z,98863.41
2022-09-23T02:20:55.544Z,98858.94
2022-09-23T02:23:22.545Z,98859.88
2022-09-23T02:25:49.547Z,98863.41
2022-09-23T02:28:16.658Z,98864.38
2022-09-23T02:30:43.654Z,98865.19
2022-09-23T02:33:11.308Z,98860.94
2022-09-23T02:35:40.299Z,98859.16
2022-09-23T02:38:07.384Z,98865.31
2022-09-23T02:40:34.569Z,98853.25
2022-09-23T02:43:01.622Z,98859.28
2022-09-23T02:45:28.699Z,98867.91
2022-09-23T02:47:55.759Z,98858.44
2022-09-23T02:50:22.832Z,98856.75
2022-09-23T02:52:49.862Z,98859.38
2022-09-23T02:55:16.879Z,98854.28
2022-09-23T02:57:43.874Z,98857.72
2022-09-23T03:00:10.881Z,98863.03
2022-09-23T03:02:39.969Z,98857.84
2022-09-23T03:05:07.036Z,98852.63
2022-09-23T03:07:34.031Z,98852.72
2022-09-23T03:10:01.029Z,98850.13
2022-09-23T03:12:32.979Z,98837.94
2022-09-23T03:15:00.028Z,98853.69
2022-09-23T03:17:27.062Z,98850.25
2022-09-23T03:19:54.056Z,98848.59
2022-09-23T03:22:21.059Z,98848.59
2022-09-23T03:24:50.743Z,98839.09
2022-09-23T03:27:20.812Z,98850.34
2022-09-23T03:29:47.806Z,98844.31
2022-09-23T03:32:14.832Z,98843.47
2022-09-23T03:34:41.828Z,98844.41
2022-09-23T03:37:08.874Z,98837.44
2022-09-23T03:39:35.887Z,98833.19
2022-09-23T03:42:02.895Z,98828.88
2022-09-23T03:44:29.890Z,98828.06
2022-09-23T03:46:56.886Z,98824.63
2022-09-23T03:49:24.298Z,98819.56
2022-09-23T03:51:51.307Z,98821.22
2022-09-23T03:54:20.372Z,98822.03
2022-09-23T03:56:47.913Z,98821.22
2022-09-23T03:59:17.923Z,98829.00
2022-09-23T04:01:46.187Z,98823.81
2022-09-23T04:04:13.287Z,98819.56
2022-09-23T04:06:40.286Z,98821.31
2022-09-23T04:09:07.292Z,98816.00
2022-09-23T04:11:34.287Z,98814.34
2022-09-23T04:14:01.327Z,98816.00
2022-09-23T04:16:28.453Z,98808.31
2022-09-23T04:18:55.499Z,98800.38
2022-09-23T04:21:22.497Z,98805.72
2022-09-23T04:23:49.648Z,98806.63
2022-09-23T04:26:16.682Z,98807.47
2022-09-23T04:28:43.699Z,98808.41
2022-09-23T04:31:10.842Z,98809.22
2022-09-23T04:33:38.010Z,98798.94
2022-09-23T04:36:05.269Z,98804.97
2022-09-23T04:38:32.265Z,98799.78
2022-09-23T04:40:59.411Z,98800.59
2022-09-23T04:43:26.464Z,98804.97
2022-09-23T04:45:53.485Z,98808.53
2022-09-23T04:48:20.485Z,98801.53
2022-09-23T04:50:48.833Z,98798.13
2022-09-23T04:53:16.417Z,98788.66
2022-09-23T04:55:43.596Z,98793.94
2022-09-23T04:58:10.611Z,98799.16
2022-09-23T05:00:37.665Z,98797.28
2022-09-23T05:03:04.702Z,98799.91
2022-09-23T05:05:31.906Z,98799.16
2022-09-23T05:07:58.937Z,98802.72
2022-09-23T05:10:25.938Z,98804.50
2022-09-23T05:12:57.080Z,98805.31
2022-09-23T05:15:24.490Z,98805.31
2022-09-23T05:17:51.492Z,98807.09
2022-09-23T05:20:19.738Z,98806.25
2022-09-23T05:22:46.857Z,98803.72
2022-09-23T05:25:13.854Z,98805.50
2022-09-23T05:27:40.867Z,98806.31
2022-09-23T05:30:07.865Z,98812.47
2022-09-23T05:32:34.879Z,98817.69
2022-09-23T05:35:02.587Z,98815.91
2022-09-23T05:37:29.652Z,98816.03
2022-09-23T05:39:56.690Z,98818.63
2022-09-23T05:42:24.111Z,98820.28
2022-09-23T05:44:51.094Z,98814.25
2022-09-23T05:47:18.112Z,98816.03
2022-09-23T05:49:59.255Z,98814.25
2022-09-23T05:52:26.907Z,98812.59
2022-09-23T05:54:53.902Z,98820.50
2022-09-23T05:57:21.485Z,98822.28
2022-09-23T05:59:48.595Z,98822.16
2022-09-23T06:02:15.787Z,98816.94
2022-09-23T06:04:43.303Z,98823.00
2022-09-23T06:07:10.443Z,98816.25
2022-09-23T06:09:37.532Z,98817.06
2022-09-23T06:12:04.599Z,98815.41
2022-09-23T06:14:31.598Z,98817.06
2022-09-23T06:16:58.806Z,98819.69
2022-09-23T06:19:25.835Z,98823.22
2022-09-23T06:21:52.969Z,98814.59
2022-09-23T06:24:23.748Z,98815.41
2022-09-23T06:26:53.041Z,98811.13
2022-09-23T06:29:20.431Z,98812.81
2022-09-23T06:31:47.531Z,98813.66
2022-09-23T06:34:14.977Z,98821.53
2022-09-23T06:36:45.000Z,98829.34
2022-09-23T06:39:12.883Z,98824.16
2022-09-23T06:41:39.882Z,98823.31
2022-09-23T06:44:07.039Z,98825.91
2022-09-23T06:46:34.232Z,98819.88
2022-09-23T06:49:02.822Z,98814.81
2022-09-23T06:51:29.825Z,98813.72
2022-09-23T06:53:56.835Z,98810.31
2022-09-23T06:56:24.732Z,98812.09
2022-09-23T06:58:51.725Z,98812.09
2022-09-23T07:01:19.942Z,98817.19
2022-09-23T07:03:48.248Z,98813.72
2022-09-23T07:06:15.380Z,98818.94
2022-09-23T07:08:42.384Z,98812.09
2022-09-23T07:11:13.381Z,98811.13
2022-09-23T07:13:41.218Z,98811.13
2022-09-23T07:16:08.329Z,98806.78
2022-09-23T07:18:37.345Z,98811.88
2022-09-23T07:21:04.607Z,98807.50
2022-09-23T07:23:33.530Z,98797.19
2022-09-23T07:26:00.615Z,98804.88
2022-09-23T07:28:29.040Z,98801.34
2022-09-23T07:31:00.307Z,98809.88
2022-09-23T07:33:33.265Z,98802.06
2022-09-23T07:36:00.487Z,98803.66
2022-09-23T07:38:30.255Z,98806.25
2022-09-23T07:40:57.479Z,98802.59
2022-09-23T07:43:27.240Z,98797.28
2022-09-23T07:45:54.616Z,98804.16
2022-09-23T07:48:21.661Z,98804.03
2022-09-23T07:50:49.802Z,98810.91
2022-09-23T07:53:16.799Z,98812.44
2022-09-23T07:55:43.796Z,98818.38
2022-09-23T07:58:10.792Z,98807.97
2022-09-23T08:00:37.876Z,98803.59
2022-09-23T08:03:04.974Z,98803.47
2022-09-23T08:05:32.033Z,98805.16
2022-09-23T08:07:59.024Z,98801.59
2022-09-23T08:10:26.045Z,98797.22
2022-09-23T08:12:53.064Z,98792.84
2022-09-23T08:15:20.060Z,98788.16
2022-09-23T08:17:47.270Z,98789.06
2022-09-23T08:20:36.901Z,98790.75
2022-09-23T08:23:04.012Z,98788.16
2022-09-23T08:25:34.314Z,98790.75
2022-09-23T08:28:01.821Z,98784.69
2022-09-23T08:30:28.831Z,98778.56
2022-09-23T08:32:55.830Z,98785.28
2022-09-23T08:35:22.916Z,98790.28
2022-09-23T08:37:50.429Z,98789.00
2022-09-23T08:40:17.548Z,98787.09
2022-09-23T08:42:45.456Z,98777.06
2022-09-23T08:45:12.439Z,98791.53
2022-09-23T08:47:39.426Z,98787.88
2022-09-23T08:50:06.692Z,98782.19
2022-09-23T08:52:33.711Z,98776.75
2022-09-23T08:55:00.702Z,98781.00
2022-09-23T08:57:27.695Z,98771.66
2022-09-23T08:59:54.756Z,98774.28
2022-09-23T09:02:21.786Z,98767.06
2022-09-23T09:04:48.955Z,98762.44
2022-09-23T09:07:35.738Z,98761.75
2022-09-23T09:10:03.501Z,98758.69
2022-09-23T09:12:30.497Z,98752.97
2022-09-23T09:15:00.042Z,98751.09
2022-09-23T09:17:28.223Z,98752.66
2022-09-23T09:19:57.727Z,98748.25
2022-09-23T09:22:26.077Z,98754.06
2022-09-23T09:24:53.109Z,98751.34
2022-09-23T09:27:20.261Z,98743.41
2022-09-23T09:29:50.043Z,98743.28
2022-09-23T09:32:17.305Z,98749.22
2022-09-23T09:34:44.303Z,98742.13
2022-09-23T09:37:11.532Z,98737.63
2022-09-23T09:39:38.527Z,98739.88
2022-09-23T09:42:07.532Z,98732.88
2022-09-23T09:44:37.162Z,98727.66
2022-09-23T09:47:06.271Z,98725.75
2022-09-23T09:49:38.141Z,98723.41
2022-09-23T09:52:09.760Z,98719.72
2022-09-23T09:54:36.791Z,98719.63
2022-09-23T09:57:03.780Z,98722.31
2022-09-23T09:59:30.784Z,98718.78
2022-09-23T10:01:57.776Z,98708.47
2022-09-23T10:04:25.066Z,98703.25
2022-09-23T10:06:52.121Z,98703.16
2022-09-23T10:09:19.538Z,98707.63
2022-09-23T10:11:46.550Z,98702.28
2022-09-23T10:14:13.615Z,98696.97
2022-09-23T10:16:41.611Z,98696.97
2022-09-23T10:19:08.691Z,98698.63
2022-09-23T10:21:35.805Z,98696.75
2022-09-23T10:24:03.101Z,98690.69
2022-09-23T10:26:33.050Z,98697.44
2022-09-23T10:29:00.151Z,98688.66
2022-09-23T10:31:27.192Z,98683.44
2022-09-23T10:34:03.500Z,98687.72
2022-09-23T10:36:30.503Z,98688.53
2022-09-23T10:39:17.479Z,98678.22
2022-09-23T10:42:03.283Z,98674.53
2022-09-23T10:44:48.892Z,98682.38
2022-09-23T10:47:15.888Z,98677.97
2022-09-23T10:49:43.774Z,98670.16
2022-09-23T10:52:10.870Z,98665.75
2022-09-23T10:54:37.902Z,98663.16
2022-09-23T10:57:24.888Z,98669.22
2022-09-23T10:59:51.878Z,98664.84
2022-09-23T11:02:18.884Z,98652.63
2022-09-23T11:04:46.068Z,98649.44
2022-09-23T11:07:14.271Z,98650.25
2022-09-23T11:09:41.340Z,98648.59
2022-09-23T11:12:08.356Z,98646.00
2022-09-23T11:14:38.776Z,98645.03
2022-09-23T11:17:05.975Z,98644.31
2022-09-23T11:19:34.205Z,98651.31
2022-09-23T11:22:01.203Z,98638.16
2022-09-23T11:24:28.199Z,98644.06
2022-09-23T11:26:55.266Z,98641.22
2022-09-23T11:29:22.281Z,98630.22
2022-09-23T11:31:49.284Z,98633.63
2022-09-23T11:34:16.280Z,98628.31
2022-09-23T11:36:43.483Z,98618.72
2022-09-23T11:39:10.496Z,98616.78
2022-09-23T11:41:37.491Z,98614.19
2022-09-23T11:44:04.568Z,98612.97
2022-09-23T11:46:31.611Z,98616.19
2022-09-23T11:48:58.716Z,98599.59
2022-09-23T11:51:25.722Z,98603.03
2022-09-23T11:53:52.749Z,98601.88
2022-09-23T11:56:31.750Z,98606.50
2022-09-23T11:59:00.271Z,98598.53
2022-09-23T12:01:36.099Z,98596.78
2022-09-23T12:04:15.748Z,98595.09
2022-09-23T12:06:46.442Z,98595.00
2022-09-23T12:09:13.465Z,98592.13
2022-09-23T12:11:40.476Z,98592.13
2022-09-23T12:14:07.552Z,98586.22
2022-09-23T12:16:34.683Z,98583.59
2022-09-23T12:19:03.351Z,98579.06
2022-09-23T12:21:49.225Z,98584.19
2022-09-23T12:24:19.264Z,98579.78
2022-09-23T12:26:46.616Z,98574.72
2022-09-23T12:29:13.636Z,98570.19
2022-09-23T12:31:43.034Z,98566.75
2022-09-23T12:34:11.162Z,98559.88
2022-09-23T12:36:38.398Z,98563.06
2022-09-23T12:39:05.427Z,98568.97
2022-09-23T12:41:37.526Z,98562.38
2022-09-23T12:44:04.554Z,98563.44
2022-09-23T12:46:31.549Z,98558.22
2022-09-23T12:48:59.029Z,98545.16
2022-09-23T12:51:26.127Z,98547.66
2022-09-23T12:53:54.030Z,98538.88
2022-09-23T12:56:21.022Z,98545.06
2022-09-23T12:58:48.202Z,98534.63
2022-09-23T13:01:15.374Z,98536.53
2022-09-23T13:04:01.278Z,98547.78
2022-09-23T13:06:40.544Z,98538.31
2022-09-23T13:09:07.549Z,98538.19
2022-09-23T13:11:34.603Z,98532.97
2022-09-23T13:14:02.316Z,98532.72
2022-09-23T13:16:29.562Z,98532.47
2022-09-23T13:18:56.823Z,98525.47
2022-09-23T13:21:23.836Z,98519.41
2022-09-23T13:23:50.837Z,98512.41
2022-09-23T13:26:17.838Z,98518.59
2022-09-23T13:28:44.828Z,98515.31
2022-09-23T13:31:11.824Z,98500.59
2022-09-23T13:33:39.040Z,98509.22
2022-09-23T13:36:06.801Z,98499.50
2022-09-23T13:38:35.491Z,98492.13
2022-09-23T13:41:02.487Z,98495.44
2022-09-23T13:43:31.770Z,98493.66
2022-09-23T13:45:58.810Z,98490.34
2022-09-23T13:48:27.138Z,98484.31
2022-09-23T13:50:54.656Z,98489.41
2022-09-23T13:53:21.708Z,98482.25
2022-09-23T13:55:52.351Z,98485.84
2022-09-23T13:58:19.665Z,98487.63
2022-09-23T14:00:46.726Z,98485.00
2022-09-23T14:03:13.805Z,98485.25
2022-09-23T14:05:40.877Z,98479.09
2022-09-23T14:08:07.862Z,98480.63
2022-09-23T14:10:35.036Z,98476.38
2022-09-23T14:13:02.032Z,98477.19
2022-09-23T14:15:30.575Z,98466.03
2022-09-23T14:17:57.578Z,98468.94
2022-09-23T14:20:24.615Z,98466.75
2022-09-23T14:22:51.693Z,98462.09
2022-09-23T14:25:18.729Z,98466.25
2022-09-23T14:27:47.199Z,98470.63
2022-09-23T14:30:14.205Z,98460.06
2022-09-23T14:32:41.274Z,98458.28
2022-09-23T14:35:09.248Z,98462.53
2022-09-23T14:37:54.643Z,98454.72
2022-09-23T14:40:21.666Z,98458.84
2022-09-23T14:42:48.750Z,98453.50
2022-09-23T14:45:15.767Z,98452.56
2022-09-23T14:47:42.755Z,98451.03
2022-09-23T14:50:28.724Z,98457.06
2022-09-23T14:52:55.724Z,98450.88
2022-09-23T14:55:22.736Z,98447.19
2022-09-23T14:57:49.735Z,98443.88
2022-09-23T15:00:16.739Z,98437.16
2022-09-23T15:02:43.821Z,98438.56
2022-09-23T15:05:10.821Z,98433.34
2022-09-23T15:07:37.812Z,98433.34
2022-09-23T15:10:04.893Z,98432.38
2022-09-23T15:12:31.907Z,98429.63
2022-09-23T15:14:59.207Z,98423.47
2022-09-23T15:17:26.280Z,98423.47
2022-09-23T15:19:54.271Z,98424.28
2022-09-23T15:22:21.300Z,98428.78
2022-09-23T15:24:48.332Z,98428.53
2022-09-23T15:27:15.339Z,98420.03
2022-09-23T15:29:42.362Z,98421.53
2022-09-23T15:32:10.203Z,98420.59
2022-09-23T15:34:37.249Z,98424.72
2022-09-23T15:37:04.294Z,98412.38
2022-09-23T15:39:36.068Z,98418.56
2022-09-23T15:42:03.492Z,98412.47
2022-09-23T15:44:30.586Z,98409.75
2022-09-23T15:46:59.210Z,98408.78
2022-09-23T15:49:26.216Z,98400.97
2022-09-23T15:51:53.304Z,98407.00
2022-09-23T15:54:20.377Z,98408.41
2022-09-23T15:56:47.838Z,98412.22
2022-09-23T15:59:14.836Z,98405.63
2022-09-23T16:01:41.966Z,98406.59
2022-09-23T16:04:09.095Z,98402.31
2022-09-23T16:06:36.184Z,98404.09
2022-09-23T16:09:03.231Z,98402.31
2022-09-23T16:11:31.750Z,98402.19
2022-09-23T16:13:59.476Z,98401.47
2022-09-23T16:16:27.779Z,98401.38
2022-09-23T16:18:54.936Z,98403.72
2022-09-23T16:21:21.932Z,98398.34
2022-09-23T16:23:49.923Z,98401.78
2022-09-23T16:26:17.194Z,98401.78
2022-09-23T16:28:44.265Z,98394.22
2022-09-23T16:31:11.943Z,98387.34
2022-09-23T16:33:39.390Z,98384.75
2022-09-23T16:36:06.383Z,98378.44
2022-09-23T16:38:33.370Z,98385.44
2022-09-23T16:41:00.903Z,98379.25
2022-09-23T16:43:31.656Z,98368.13
2022-09-23T16:45:58.790Z,98373.47
2022-09-23T16:48:25.924Z,98381.31
2022-09-23T16:50:54.112Z,98376.81
2022-09-23T16:53:21.228Z,98372.25
2022-09-23T16:55:48.295Z,98385.88
2022-09-23T16:58:15.290Z,98384.91
2022-09-23T17:01:01.280Z,98382.03
2022-09-23T17:03:40.999Z,98381.53
2022-09-23T17:06:08.303Z,98378.75
2022-09-23T17:08:35.427Z,98381.63
2022-09-23T17:11:03.038Z,98384.25
2022-09-23T17:13:31.045Z,98377.38
2022-09-23T17:15:58.148Z,98383.97
2022-09-23T17:18:25.261Z,98372.00
2022-09-23T17:20:52.271Z,98376.28
2022-09-23T17:23:19.484Z,98373.94
2022-09-23T17:25:46.585Z,98383.41
2022-09-23T17:28:13.642Z,98382.34
2022-09-23T17:30:40.778Z,98377.53
2022-09-23T17:33:09.049Z,98376.69
2022-09-23T17:35:36.378Z,98380.25
2022-09-23T17:38:03.366Z,98381.91
2022-09-23T17:40:30.427Z,98383.41
2022-09-23T17:42:57.435Z,98383.41
2022-09-23T17:45:24.468Z,98387.81
2022-09-23T17:47:54.837Z,98386.03
2022-09-23T17:50:22.455Z,98385.91
2022-09-23T17:52:49.497Z,98388.53
2022-09-23T17:55:16.898Z,98382.34
2022-09-23T17:57:43.894Z,98387.56
2022-09-23T18:00:10.942Z,98390.16
2022-09-23T18:02:37.966Z,98388.53
2022-09-23T18:05:05.084Z,98383.31
2022-09-23T18:07:32.087Z,98383.31
2022-09-23T18:09:59.078Z,98396.22
2022-09-23T18:12:26.112Z,98391.56
2022-09-23T18:14:53.106Z,98392.53
2022-09-23T18:17:20.108Z,98385.63
2022-09-23T18:19:49.255Z,98388.81
2022-09-23T18:22:16.316Z,98379.47
2022-09-23T18:24:43.992Z,98381.69
2022-09-23T18:27:10.993Z,98381.69
2022-09-23T18:29:38.047Z,98381.69
2022-09-23T18:32:05.143Z,98375.38
2022-09-23T18:34:32.470Z,98370.16
2022-09-23T18:36:59.701Z,98377.72
2022-09-23T18:39:26.785Z,98371.56
2022-09-23T18:41:54.835Z,98372.25
2022-09-23T18:44:23.321Z,98373.75
2022-09-23T18:46:50.324Z,98379.25
2022-09-23T18:49:36.282Z,98378.28
2022-09-23T18:52:03.213Z,98381.84
2022-09-23T18:54:30.441Z,98379.97
2022-09-23T18:56:59.332Z,98379.97
2022-09-23T18:59:29.597Z,98373.75
2022-09-23T19:01:56.769Z,98381.75
2022-09-23T19:04:23.916Z,98381.34
2022-09-23T19:06:50.929Z,98384.88
2022-09-23T19:09:17.958Z,98388.34
2022-09-23T19:11:44.997Z,98379.00
2022-09-23T19:14:12.167Z,98381.72
2022-09-23T19:16:39.351Z,98374.84
2022-09-23T19:19:06.540Z,98374.19
2022-09-23T19:21:33.628Z,98377.34
2022-09-23T19:24:03.915Z,98376.50
2022-09-23T19:26:32.416Z,98376.63
2022-09-23T19:28:59.687Z,98381.84
2022-09-23T19:31:26.761Z,98384.72
2022-09-23T19:33:56.258Z,98390.91
2022-09-23T19:36:23.543Z,98384.72
2022-09-23T19:38:51.595Z,98382.13
2022-09-23T19:41:19.179Z,98390.66
2022-09-23T19:43:46.216Z,98385.44
2022-09-23T19:46:13.241Z,98387.34
2022-09-23T19:48:40.621Z,98383.09
2022-09-23T19:51:07.655Z,98386.41
2022-09-23T19:53:34.657Z,98379.50
2022-09-23T19:56:05.600Z,98381.03
2022-09-23T19:58:33.075Z,98379.50
2022-09-23T20:01:00.208Z,98381.03
2022-09-23T20:03:27.331Z,98382.69
2022-09-23T20:05:54.332Z,98377.59
2022-09-23T20:08:21.517Z,98377.59
2022-09-23T20:10:49.826Z,98380.22
2022-09-23T20:13:17.439Z,98378.28
2022-09-23T20:15:44.633Z,98377.47
2022-09-23T20:18:11.708Z,98371.41
2022-09-23T20:20:38.700Z,98384.31
2022-09-23T20:23:06.098Z,98375.56
2022-09-23T20:25:53.061Z,98375.56
2022-09-23T20:28:21.251Z,98367.72
2022-09-23T20:30:49.004Z,98368.66
2022-09-23T20:33:15.997Z,98360.72
2022-09-23T20:35:43.843Z,98363.63
2022-09-23T20:38:10.841Z,98355.69
2022-09-23T20:40:38.538Z,98357.28
2022-09-23T20:43:05.658Z,98355.78
2022-09-23T20:45:32.672Z,98357.72
2022-09-23T20:48:00.233Z,98361.03
2022-09-23T20:50:27.293Z,98360.63
2022-09-23T20:52:54.304Z,98358.84
2022-09-23T20:55:21.301Z,98365.41
2022-09-23T20:57:48.698Z,98372.56
2022-09-23T21:00:15.735Z,98365.56
2022-09-23T21:02:43.376Z,98362.78
2022-09-23T21:05:10.555Z,98367.47
2022-09-23T21:07:37.619Z,98366.22
2022-09-23T21:10:06.939Z,98366.91
2022-09-23T21:12:35.191Z,98369.00
2022-09-23T21:15:02.400Z,98361.72
2022-09-23T21:17:29.401Z,98364.31
2022-09-23T21:19:56.575Z,98357.44
2022-09-23T21:22:23.832Z,98355.09
2022-09-23T21:25:26.504Z,98349.72
2022-09-23T21:27:38.453Z,98359.06
2022-09-23T21:30:05.958Z,98363.47
2022-09-23T21:32:35.027Z,98362.09
2022-09-23T21:35:02.103Z,98355.22
2022-09-23T21:37:29.094Z,98352.47
2022-09-23T21:40:14.976Z,98357.97
2022-09-23T21:42:42.102Z,98354.13
2022-09-23T21:45:09.131Z,98353.72
2022-09-23T21:47:36.162Z,98353.59
2022-09-23T21:50:04.190Z,98359.22
2022-09-23T21:52:31.208Z,98348.66
2022-09-23T21:54:58.212Z,98346.31
2022-09-23T21:57:25.942Z,98341.22
2022-09-23T21:59:54.189Z,98352.06
2022-09-23T22:02:21.196Z,98347.38
2022-09-23T22:04:48.263Z,98351.22
2022-09-23T22:07:15.260Z,98342.69
2022-09-23T22:09:42.266Z,98348.06
2022-09-23T22:12:11.574Z,98340.09
2022-09-23T22:14:39.143Z,98344.06
2022-09-23T22:17:06.256Z,98339.41
2022-09-23T22:19:35.209Z,98334.34
2022-09-23T22:22:03.038Z,98332.81
2022-09-23T22:24:30.055Z,98326.06
2022-09-23T22:26:57.068Z,98323.34
2022-09-23T22:29:42.713Z,98318.94
2022-09-23T22:32:28.408Z,98321.13
2022-09-23T22:34:56.040Z,98316.19
2022-09-23T22:37:24.306Z,98326.63
2022-09-23T22:39:52.106Z,98324.00
2022-09-23T22:42:22.640Z,98331.56
2022-09-23T22:44:50.518Z,98331.56
2022-09-23T22:47:20.624Z,98324.56
2022-09-23T22:49:48.121Z,98329.78
2022-09-23T22:52:16.478Z,98326.25
2022-09-23T22:54:44.094Z,98324.00
2022-09-23T22:57:11.274Z,98321.53
2022-09-23T22:59:38.690Z,98322.50
2022-09-23T23:02:08.761Z,98335.94
2022-09-23T23:04:37.365Z,98334.31
2022-09-23T23:07:06.834Z,98334.41
2022-09-23T23:09:34.401Z,98338.94
2022-09-23T23:12:02.983Z,98338.81
2022-09-23T23:14:31.677Z,98330.06
2022-09-23T23:16:59.813Z,98328.25
2022-09-23T23:19:27.190Z,98331.00
2022-09-23T23:21:56.028Z,98330.28
2022-09-23T23:24:24.909Z,98326.34
2022-09-23T23:26:52.329Z,98329.91
2022-09-23T23:29:19.767Z,98325.75
2022-09-23T23:31:46.933Z,98320.66
2022-09-23T23:34:13.970Z,98323.28
2022-09-23T23:36:41.716Z,98318.19
2022-09-23T23:39:09.076Z,98316.41
2022-09-23T23:41:36.841Z,98323.03
2022-09-23T23:44:04.235Z,98319.69
2022-09-23T23:46:32.034Z,98314.47
2022-09-23T23:48:59.352Z,98316.41
2022-09-23T23:51:33.547Z,98303.22
2022-09-23T23:54:00.845Z,98301.81
2022-09-23T23:56:27.960Z,98307.06
2022-09-23T23:58:55.089Z,98301.00
